Time;durP1;ratioP1;P1;durP2;ratioP2;P2;SDS_P1;SDS_P2;PMS_P1;PMS_P2;Temp;Humidity;BMP_temperature;BMP_pressure;BME280_temperature;BME280_humidity;BME280_pressure;Samples;Min_cycle;Max_cycle;Signal;HPM_P1;HPM_P2
2022/06/26 05:34:38;;;;;;;4.43;2.93;;;;;;;;;;7387530;19;20188;-80
2022/06/26 05:37:04;;;;;;;3.27;2.87;;;;;;;;;;7388972;19;20405;-80
2022/06/26 05:39:29;;;;;;;3.80;2.97;;;;;;;;;;7390445;19;20145;-81
2022/06/26 05:41:54;;;;;;;4.20;3.50;;;;;;;;;;7380783;19;20203;-82
2022/06/26 05:44:19;;;;;;;3.30;3.00;;;;;;;;;;7382742;19;20481;-80
2022/06/26 05:46:45;;;;;;;3.80;3.30;;;;;;;;;;7388013;19;20161;-81
2022/06/26 05:49:10;;;;;;;4.27;3.00;;;;;;;;;;7389106;19;20507;-81
2022/06/26 05:51:35;;;;;;;3.60;3.30;;;;;;;;;;7387498;19;20638;-81
2022/06/26 05:54:01;;;;;;;5.22;3.13;;;;;;;;;;7389600;19;20630;-80
2022/06/26 05:56:26;;;;;;;4.53;3.10;;;;;;;;;;7389008;19;20129;-81
2022/06/26 05:58:51;;;;;;;3.20;2.90;;;;;;;;;;7387826;19;20148;-82
2022/06/26 06:01:17;;;;;;;3.78;3.40;;;;;;;;;;7384379;19;20172;-81
2022/06/26 06:03:42;;;;;;;3.90;3.58;;;;;;;;;;7386538;19;20117;-81
2022/06/26 06:06:07;;;;;;;3.47;3.17;;;;;;;;;;7388794;19;20172;-81
2022/06/26 06:08:33;;;;;;;4.18;3.55;;;;;;;;;;7389011;19;20117;-81
2022/06/26 06:10:58;;;;;;;3.58;3.28;;;;;;;;;;7386192;19;20639;-81
2022/06/26 06:13:23;;;;;;;4.38;4.07;;;;;;;;;;7386986;19;20144;-81
2022/06/26 06:15:49;;;;;;;4.53;3.45;;;;;;;;;;7388377;19;20175;-79
2022/06/26 06:18:14;;;;;;;4.10;3.35;;;;;;;;;;7388032;19;20141;-81
2022/06/26 06:20:39;;;;;;;4.35;3.75;;;;;;;;;;7389934;19;20589;-81
2022/06/26 06:23:06;;;;;;;4.05;3.47;;;;;;;;;;7376312;19;20459;-80
2022/06/26 06:25:33;;;;;;;4.05;3.28;;;;;;;;;;7403233;19;20133;-82
2022/06/26 06:27:58;;;;;;;3.55;3.25;;;;;;;;;;7411680;19;20160;-81
2022/06/26 06:30:24;;;;;;;4.68;3.67;;;;;;;;;;7411789;19;20681;-83
2022/06/26 06:32:49;;;;;;;3.95;3.40;;;;;;;;;;7402295;19;20671;-81
2022/06/26 06:35:15;;;;;;;2.95;2.75;;;;;;;;;;7385667;19;20129;-81
2022/06/26 06:37:41;;;;;;;3.45;3.15;;;;;;;;;;7389344;19;20193;-80
2022/06/26 06:40:07;;;;;;;2.42;2.22;;;;;;;;;;7394216;19;20149;-84
2022/06/26 06:42:33;;;;;;;2.10;2.00;;;;;;;;;;7410605;19;20156;-82
2022/06/26 06:44:58;;;;;;;2.00;1.90;;;;;;;;;;7405534;19;20137;-82
2022/06/26 06:47:24;;;;;;;2.72;2.53;;;;;;;;;;7414052;19;20681;-81
2022/06/26 06:49:49;;;;;;;3.75;2.03;;;;;;;;;;7404805;19;20149;-81
2022/06/26 06:52:14;;;;;;;2.22;2.05;;;;;;;;;;7383323;19;20156;-80
2022/06/26 06:54:40;;;;;;;1.55;1.45;;;;;;;;;;7386778;19;20149;-81
2022/06/26 06:57:05;;;;;;;2.25;1.73;;;;;;;;;;7387631;19;20137;-80
2022/06/26 06:59:30;;;;;;;1.73;1.63;;;;;;;;;;7383921;19;20168;-80
2022/06/26 07:01:56;;;;;;;2.67;1.67;;;;;;;;;;7381110;19;20159;-80
2022/06/26 07:04:21;;;;;;;1.73;1.63;;;;;;;;;;7366684;19;20232;-79
2022/06/26 07:06:47;;;;;;;1.77;1.67;;;;;;;;;;7383688;19;20537;-79
2022/06/26 07:09:12;;;;;;;2.00;1.90;;;;;;;;;;7386773;19;20129;-80
2022/06/26 07:11:38;;;;;;;2.30;2.00;;;;;;;;;;7406392;19;20871;-81
2022/06/26 07:14:04;;;;;;;2.55;2.30;;;;;;;;;;7391669;19;20136;-80
2022/06/26 07:16:29;;;;;;;2.40;2.20;;;;;;;;;;7366467;19;20152;-79
2022/06/26 07:18:54;;;;;;;4.25;2.33;;;;;;;;;;7373497;19;20641;-79
2022/06/26 07:21:20;;;;;;;1.90;1.80;;;;;;;;;;7375326;19;20230;-80
2022/06/26 07:23:45;;;;;;;1.90;1.77;;;;;;;;;;7383852;19;20153;-79
2022/06/26 07:26:10;;;;;;;2.33;2.10;;;;;;;;;;7382803;19;20188;-80
2022/06/26 07:28:36;;;;;;;2.10;1.90;;;;;;;;;;7383996;19;20492;-80
2022/06/26 07:31:01;;;;;;;2.00;1.80;;;;;;;;;;7377175;19;20160;-80
2022/06/26 07:36:10;;;;;;;2.05;1.85;;;;;;;;;;7379932;19;20143;-80
2022/06/26 07:38:36;;;;;;;1.70;1.60;;;;;;;;;;7384626;19;20145;-80
2022/06/26 07:41:01;;;;;;;2.95;1.90;;;;;;;;;;7384343;19;20191;-81
2022/06/26 07:43:27;;;;;;;3.60;2.10;;;;;;;;;;7397815;19;20136;-81
2022/06/26 07:45:52;;;;;;;2.53;1.90;;;;;;;;;;7405751;19;20125;-80
2022/06/26 07:48:17;;;;;;;3.00;1.65;;;;;;;;;;7401068;19;20144;-80
2022/06/26 07:50:43;;;;;;;2.45;1.80;;;;;;;;;;7383253;19;20193;-80
2022/06/26 07:53:09;;;;;;;2.78;1.90;;;;;;;;;;7384514;19;20144;-80
2022/06/26 07:55:34;;;;;;;2.05;1.85;;;;;;;;;;7377289;19;20216;-80
2022/06/26 07:58:00;;;;;;;2.28;1.50;;;;;;;;;;7382548;19;20144;-80
2022/06/26 08:00:25;;;;;;;1.70;1.60;;;;;;;;;;7367574;19;20622;-80
2022/06/26 08:02:51;;;;;;;2.28;1.52;;;;;;;;;;7387395;19;20140;-80
2022/06/26 08:05:17;;;;;;;1.80;1.70;;;;;;;;;;7386550;19;20148;-80
2022/06/26 08:07:42;;;;;;;1.85;1.70;;;;;;;;;;7395132;19;20144;-80
2022/06/26 08:10:08;;;;;;;2.50;1.80;;;;;;;;;;7403427;19;20164;-78
2022/06/26 08:12:33;;;;;;;2.10;1.80;;;;;;;;;;7414187;19;20124;-80
2022/06/26 08:14:58;;;;;;;4.53;1.92;;;;;;;;;;7388112;19;20500;-81
2022/06/26 08:17:24;;;;;;;1.83;1.70;;;;;;;;;;7386802;19;20495;-80
2022/06/26 08:19:49;;;;;;;1.70;1.60;;;;;;;;;;7381698;19;20205;-80
2022/06/26 08:22:14;;;;;;;1.75;1.65;;;;;;;;;;7384603;19;20212;-80
2022/06/26 08:24:41;;;;;;;1.88;1.73;;;;;;;;;;7373549;19;20613;-81
2022/06/26 08:27:07;;;;;;;1.60;1.50;;;;;;;;;;7380841;19;20319;-79
2022/06/26 08:29:33;;;;;;;2.45;1.70;;;;;;;;;;7384759;19;20153;-81
2022/06/26 08:31:58;;;;;;;1.80;1.70;;;;;;;;;;7380630;19;20251;-81
2022/06/26 08:34:23;;;;;;;3.00;1.80;;;;;;;;;;7379093;19;20160;-81
2022/06/26 08:36:49;;;;;;;1.58;1.48;;;;;;;;;;7379122;19;20590;-79
2022/06/26 08:39:22;;;;;;;1.80;1.70;;;;;;;;;;7384848;19;20615;-80
2022/06/26 08:41:48;;;;;;;1.98;1.55;;;;;;;;;;7382927;19;20172;-81
2022/06/26 08:44:14;;;;;;;2.17;1.70;;;;;;;;;;7378859;19;20160;-80
2022/06/26 08:46:41;;;;;;;2.90;1.85;;;;;;;;;;7383020;19;20152;-80
2022/06/26 08:49:10;;;;;;;2.90;1.90;;;;;;;;;;7385297;19;20161;-81
2022/06/26 08:51:40;;;;;;;1.92;1.75;;;;;;;;;;7382302;19;20177;-80
2022/06/26 08:54:06;;;;;;;2.08;1.70;;;;;;;;;;7384134;19;20167;-79
2022/06/26 08:56:36;;;;;;;4.32;1.70;;;;;;;;;;7379900;19;20144;-79
2022/06/26 08:59:02;;;;;;;2.85;1.67;;;;;;;;;;7385335;19;20157;-78
2022/06/26 09:01:27;;;;;;;1.55;1.40;;;;;;;;;;7367214;19;20229;-79
2022/06/26 09:03:53;;;;;;;2.13;1.73;;;;;;;;;;7386197;19;20140;-79
2022/06/26 09:06:18;;;;;;;2.70;1.60;;;;;;;;;;7383466;19;20145;-80
2022/06/26 09:08:46;;;;;;;2.20;1.50;;;;;;;;;;7388306;19;20563;-80
2022/06/26 09:11:11;;;;;;;1.63;1.50;;;;;;;;;;7387681;19;20177;-80
2022/06/26 09:13:42;;;;;;;1.50;1.40;;;;;;;;;;7386518;19;20169;-80
2022/06/26 09:16:07;;;;;;;2.45;1.50;;;;;;;;;;7389516;19;20213;-79
2022/06/26 09:18:35;;;;;;;1.95;1.75;;;;;;;;;;7387718;19;20132;-81
2022/06/26 09:21:01;;;;;;;1.77;1.50;;;;;;;;;;7379323;19;20169;-80
2022/06/26 09:23:26;;;;;;;2.22;1.58;;;;;;;;;;7381258;19;20128;-81
2022/06/26 09:25:52;;;;;;;1.67;1.40;;;;;;;;;;7380443;19;20290;-80
2022/06/26 09:28:19;;;;;;;1.85;1.70;;;;;;;;;;7384150;19;20117;-80
2022/06/26 09:30:46;;;;;;;2.15;1.70;;;;;;;;;;7379470;19;20642;-80
2022/06/26 09:33:11;;;;;;;2.20;1.52;;;;;;;;;;7367105;19;20145;-80
2022/06/26 09:35:37;;;;;;;1.42;1.30;;;;;;;;;;7367434;19;20516;-80
2022/06/26 09:38:03;;;;;;;1.45;1.35;;;;;;;;;;7381009;19;20153;-79
2022/06/26 09:40:28;;;;;;;1.60;1.50;;;;;;;;;;7388861;19;20513;-80
2022/06/26 09:42:54;;;;;;;1.60;1.50;;;;;;;;;;7376353;19;20193;-79
2022/06/26 09:45:19;;;;;;;2.60;1.73;;;;;;;;;;7367339;19;20144;-80
2022/06/26 09:47:45;;;;;;;1.95;1.48;;;;;;;;;;7376294;19;20526;-80
2022/06/26 09:50:10;;;;;;;2.70;1.20;;;;;;;;;;7381558;19;20157;-79
2022/06/26 09:52:36;;;;;;;3.67;1.52;;;;;;;;;;7383294;19;20271;-80
2022/06/26 09:55:03;;;;;;;1.35;1.25;;;;;;;;;;7388673;19;20148;-80
2022/06/26 09:57:29;;;;;;;3.17;1.60;;;;;;;;;;7381722;19;20163;-80
2022/06/26 09:59:55;;;;;;;1.20;1.20;;;;;;;;;;7382924;19;21242;-79
2022/06/26 10:07:54;;;;;;;1.73;1.38;;;;;;;;;;7409583;19;20116;-79
2022/06/26 10:10:21;;;;;;;2.83;1.58;;;;;;;;;;7385609;19;20180;-79
2022/06/26 10:12:52;;;;;;;1.77;1.67;;;;;;;;;;7391557;19;20163;-80
2022/06/26 10:15:18;;;;;;;1.60;1.50;;;;;;;;;;7400962;19;20522;-79
2022/06/26 10:17:49;;;;;;;1.70;1.60;;;;;;;;;;7412582;19;20140;-79
2022/06/26 10:20:19;;;;;;;1.55;1.45;;;;;;;;;;7410855;19;20141;-79
2022/06/26 10:22:45;;;;;;;2.03;1.60;;;;;;;;;;7374306;19;20622;-80
2022/06/26 10:25:23;;;;;;;1.52;1.42;;;;;;;;;;7389125;19;20153;-79
2022/06/26 10:27:48;;;;;;;1.38;1.27;;;;;;;;;;7414225;19;20177;-79
2022/06/26 10:30:19;;;;;;;1.63;1.52;;;;;;;;;;7401768;19;21489;-79
2022/06/26 10:32:44;;;;;;;1.65;1.55;;;;;;;;;;7416523;19;20129;-79
2022/06/26 10:35:12;;;;;;;1.58;1.48;;;;;;;;;;7405351;19;20173;-79
2022/06/26 10:37:50;;;;;;;1.60;1.50;;;;;;;;;;7384579;19;20160;-80
2022/06/26 10:42:52;;;;;;;4.72;1.40;;;;;;;;;;7385182;19;20159;-79
2022/06/26 10:43:02;;;;;;;1.60;1.50;;;;;;;;;;7389040;19;20149;-79
2022/06/26 10:45:38;;;;;;;1.42;1.40;;;;;;;;;;7377027;19;20121;-80
2022/06/26 10:48:09;;;;;;;2.25;1.65;;;;;;;;;;7376405;19;20120;-79
2022/06/26 10:50:36;;;;;;;1.50;1.40;;;;;;;;;;7378504;19;20176;-80
2022/06/26 10:53:11;;;;;;;1.40;1.30;;;;;;;;;;7377863;19;20392;-80
2022/06/26 10:55:38;;;;;;;2.10;2.00;;;;;;;;;;7369144;19;20140;-80
2022/06/26 10:58:03;;;;;;;1.48;1.38;;;;;;;;;;7373615;19;20752;-80
2022/06/26 11:00:28;;;;;;;1.63;1.40;;;;;;;;;;7376402;19;20148;-80
2022/06/26 11:02:54;;;;;;;1.52;1.42;;;;;;;;;;7393651;19;20181;-80
2022/06/26 11:05:20;;;;;;;4.60;1.95;;;;;;;;;;7375745;19;20140;-80
2022/06/26 11:07:53;;;;;;;2.45;1.60;;;;;;;;;;7378600;19;20148;-83
2022/06/26 11:10:20;;;;;;;1.70;1.60;;;;;;;;;;7374962;19;20536;-83
2022/06/26 11:12:48;;;;;;;3.00;1.85;;;;;;;;;;7392430;19;20141;-80
2022/06/26 11:15:24;;;;;;;2.13;1.67;;;;;;;;;;7414317;19;20180;-80
2022/06/26 11:18:03;;;;;;;1.80;1.67;;;;;;;;;;7420813;19;20117;-81
2022/06/26 11:20:47;;;;;;;3.20;1.88;;;;;;;;;;7384159;19;20171;-81
2022/06/26 11:23:25;;;;;;;5.45;1.95;;;;;;;;;;7367100;19;20140;-81
2022/06/26 11:26:07;;;;;;;2.38;1.90;;;;;;;;;;7376929;19;20144;-80
2022/06/26 11:28:41;;;;;;;1.95;1.70;;;;;;;;;;7379861;19;20199;-81
2022/06/26 11:31:11;;;;;;;2.38;1.67;;;;;;;;;;7378375;19;20638;-81
2022/06/26 11:33:39;;;;;;;1.70;1.60;;;;;;;;;;7378921;19;20137;-81
2022/06/26 11:36:05;;;;;;;2.03;1.90;;;;;;;;;;7380065;19;20797;-81
2022/06/26 11:38:32;;;;;;;2.28;1.80;;;;;;;;;;7376141;19;20129;-81
2022/06/26 11:41:02;;;;;;;1.60;1.50;;;;;;;;;;7382390;19;20169;-81
2022/06/26 11:43:28;;;;;;;2.53;1.48;;;;;;;;;;7382876;19;20141;-81
2022/06/26 11:45:56;;;;;;;2.00;1.90;;;;;;;;;;7381880;19;20133;-81
2022/06/26 11:48:22;;;;;;;2.60;1.90;;;;;;;;;;7379714;19;20137;-81
2022/06/26 11:50:53;;;;;;;2.00;1.90;;;;;;;;;;7376548;19;21323;-81
2022/06/26 11:53:20;;;;;;;2.00;1.80;;;;;;;;;;7382155;19;20159;-81
2022/06/26 11:55:48;;;;;;;2.72;2.00;;;;;;;;;;7367018;19;20468;-81
2022/06/26 11:58:15;;;;;;;11.13;9.57;;;;;;;;;;7376135;19;20444;-81
2022/06/26 12:00:40;;;;;;;3.17;2.92;;;;;;;;;;7378110;19;20607;-81
2022/06/26 12:03:06;;;;;;;2.30;2.10;;;;;;;;;;7383368;19;21640;-81
2022/06/26 12:05:31;;;;;;;2.08;1.98;;;;;;;;;;7394496;19;20145;-80
2022/06/26 12:07:57;;;;;;;2.25;1.80;;;;;;;;;;7409392;19;20144;-80
2022/06/26 12:10:31;;;;;;;2.20;2.00;;;;;;;;;;7380733;19;20156;-81
2022/06/26 12:12:58;;;;;;;2.00;1.90;;;;;;;;;;7390671;19;20160;-80
2022/06/26 12:15:25;;;;;;;3.65;3.05;;;;;;;;;;7390057;19;20129;-81
2022/06/26 12:17:54;;;;;;;2.20;2.00;;;;;;;;;;7380590;19;20587;-81
2022/06/26 12:20:20;;;;;;;3.22;1.70;;;;;;;;;;7377407;19;20176;-80
2022/06/26 12:22:51;;;;;;;1.95;1.85;;;;;;;;;;7386987;19;20152;-80
2022/06/26 12:25:27;;;;;;;2.00;1.90;;;;;;;;;;7374028;19;20128;-80
2022/06/26 12:27:52;;;;;;;2.15;2.00;;;;;;;;;;7397054;19;20462;-83
2022/06/26 12:30:20;;;;;;;2.60;2.40;;;;;;;;;;7379196;19;20171;-81
2022/06/26 12:32:45;;;;;;;1.92;1.83;;;;;;;;;;7365513;19;20149;-81
2022/06/26 12:35:11;;;;;;;1.98;1.88;;;;;;;;;;7371947;19;20391;-82
2022/06/26 12:37:36;;;;;;;2.28;2.00;;;;;;;;;;7387936;19;20155;-81
2022/06/26 12:40:03;;;;;;;1.98;1.88;;;;;;;;;;7371792;19;20815;-82
2022/06/26 12:42:28;;;;;;;2.47;2.05;;;;;;;;;;7376505;19;20505;-82
2022/06/26 12:44:54;;;;;;;1.80;1.70;;;;;;;;;;7377839;19;20121;-82
2022/06/26 12:47:19;;;;;;;2.65;1.90;;;;;;;;;;7381508;19;20156;-82
2022/06/26 12:49:44;;;;;;;1.88;1.77;;;;;;;;;;7385128;19;20144;-82
2022/06/26 12:52:10;;;;;;;3.63;2.20;;;;;;;;;;7377574;19;20140;-82
2022/06/26 12:54:35;;;;;;;2.00;1.90;;;;;;;;;;7380689;19;20125;-82
2022/06/26 12:57:01;;;;;;;2.00;1.90;;;;;;;;;;7387496;19;20136;-82
2022/06/26 12:59:26;;;;;;;3.03;1.95;;;;;;;;;;7389172;19;20250;-81
2022/06/26 13:01:52;;;;;;;2.00;1.83;;;;;;;;;;7373759;19;20172;-82
2022/06/26 13:04:17;;;;;;;1.98;1.80;;;;;;;;;;7387304;19;20156;-82
2022/06/26 13:06:42;;;;;;;2.60;1.95;;;;;;;;;;7377874;19;20120;-82
2022/06/26 13:09:07;;;;;;;2.05;1.90;;;;;;;;;;7384411;19;20152;-82
2022/06/26 13:11:36;;;;;;;2.38;2.20;;;;;;;;;;7380621;19;20195;-82
2022/06/26 13:14:01;;;;;;;2.70;2.50;;;;;;;;;;7382966;19;20179;-82
2022/06/26 13:16:26;;;;;;;1.98;1.80;;;;;;;;;;7382566;19;20515;-82
2022/06/26 13:18:52;;;;;;;2.00;1.90;;;;;;;;;;7379415;19;21637;-82
2022/06/26 13:21:19;;;;;;;2.60;1.80;;;;;;;;;;7385674;19;20175;-82
2022/06/26 13:23:45;;;;;;;2.03;1.85;;;;;;;;;;7412361;19;20132;-81
2022/06/26 13:26:10;;;;;;;2.00;1.90;;;;;;;;;;7410215;19;20159;-82
2022/06/26 13:28:36;;;;;;;2.28;2.17;;;;;;;;;;7380188;19;20577;-81
2022/06/26 13:31:03;;;;;;;2.35;2.25;;;;;;;;;;7374211;19;20176;-82
2022/06/26 13:33:28;;;;;;;2.40;2.20;;;;;;;;;;7393751;19;20140;-82
2022/06/26 13:35:53;;;;;;;3.30;3.10;;;;;;;;;;7398410;19;20166;-82
2022/06/26 13:38:19;;;;;;;2.20;2.10;;;;;;;;;;7409892;19;20139;-82
2022/06/26 13:40:44;;;;;;;2.00;1.90;;;;;;;;;;7407757;19;20172;-82
2022/06/26 13:43:09;;;;;;;2.00;1.90;;;;;;;;;;7378413;19;20152;-82
2022/06/26 13:45:35;;;;;;;1.88;1.70;;;;;;;;;;7378955;19;20136;-83
2022/06/26 13:48:00;;;;;;;2.10;1.92;;;;;;;;;;7379737;19;20124;-83
2022/06/26 13:50:25;;;;;;;2.75;2.63;;;;;;;;;;7383970;19;20148;-82
2022/06/26 13:52:51;;;;;;;2.00;1.90;;;;;;;;;;7409928;19;20136;-82
2022/06/26 13:55:16;;;;;;;2.72;2.55;;;;;;;;;;7409518;19;20136;-82
2022/06/26 13:57:42;;;;;;;2.42;2.33;;;;;;;;;;7411400;19;20148;-82
2022/06/26 14:00:07;;;;;;;2.10;2.00;;;;;;;;;;7406022;19;20175;-83
2022/06/26 14:02:33;;;;;;;9.32;8.68;;;;;;;;;;7387825;19;20733;-83
2022/06/26 14:04:58;;;;;;;3.38;3.10;;;;;;;;;;7387803;19;20179;-83
2022/06/26 14:07:23;;;;;;;2.28;2.08;;;;;;;;;;7392768;19;20603;-83
2022/06/26 14:09:49;;;;;;;2.20;1.95;;;;;;;;;;7385750;19;20117;-83
2022/06/26 14:12:15;;;;;;;2.38;2.22;;;;;;;;;;7377469;19;20155;-83
2022/06/26 14:14:40;;;;;;;2.10;2.00;;;;;;;;;;7379676;19;20140;-83
2022/06/26 14:17:06;;;;;;;1.90;1.80;;;;;;;;;;7373772;19;20148;-83
2022/06/26 14:19:31;;;;;;;2.42;2.22;;;;;;;;;;7372958;19;20152;-83
2022/06/26 14:27:25;;;;;;;4.78;2.20;;;;;;;;;;7370964;19;20139;-82
2022/06/26 14:29:50;;;;;;;2.10;2.00;;;;;;;;;;7375992;19;20156;-82
2022/06/26 14:32:16;;;;;;;1.73;1.63;;;;;;;;;;7365256;19;20183;-81
2022/06/26 14:34:41;;;;;;;2.00;1.80;;;;;;;;;;7341874;19;20595;-81
2022/06/26 14:37:07;;;;;;;2.55;2.00;;;;;;;;;;7373197;19;20183;-81
2022/06/26 14:39:32;;;;;;;2.15;2.05;;;;;;;;;;7378204;19;20532;-82
2022/06/26 14:41:58;;;;;;;3.53;3.22;;;;;;;;;;7396304;19;20188;-81
2022/06/26 14:44:24;;;;;;;2.20;2.10;;;;;;;;;;7410524;19;20128;-81
2022/06/26 14:46:50;;;;;;;2.30;2.20;;;;;;;;;;7402166;19;20749;-82
2022/06/26 14:49:15;;;;;;;2.40;2.30;;;;;;;;;;7368923;19;20132;-82
2022/06/26 14:51:40;;;;;;;2.53;1.98;;;;;;;;;;7375264;19;20729;-82
2022/06/26 14:54:06;;;;;;;4.50;3.90;;;;;;;;;;7368507;19;20133;-82
2022/06/26 14:56:31;;;;;;;3.33;3.03;;;;;;;;;;7366192;19;20205;-82
2022/06/26 14:58:57;;;;;;;3.72;3.40;;;;;;;;;;7377032;19;20676;-82
2022/06/26 15:01:22;;;;;;;3.08;2.72;;;;;;;;;;7374131;19;20203;-82
2022/06/26 15:03:48;;;;;;;2.60;2.40;;;;;;;;;;7376243;19;20144;-82
2022/06/26 15:06:14;;;;;;;3.60;3.30;;;;;;;;;;7374500;19;20132;-82
2022/06/26 15:08:39;;;;;;;2.65;2.45;;;;;;;;;;7366147;19;20527;-82
2022/06/26 15:11:05;;;;;;;2.80;2.60;;;;;;;;;;7369169;19;20176;-82
2022/06/26 15:13:31;;;;;;;2.63;2.40;;;;;;;;;;7376303;19;20627;-81
2022/06/26 15:15:56;;;;;;;2.30;2.05;;;;;;;;;;7379068;19;20140;-81
2022/06/26 15:18:21;;;;;;;2.40;2.20;;;;;;;;;;7384819;19;20132;-81
2022/06/26 15:20:47;;;;;;;6.28;5.85;;;;;;;;;;7386588;19;20173;-81
2022/06/26 15:23:12;;;;;;;5.47;2.60;;;;;;;;;;7379256;19;20148;-82
2022/06/26 15:25:37;;;;;;;3.25;2.00;;;;;;;;;;7375413;19;20603;-82
2022/06/26 15:28:03;;;;;;;4.78;2.63;;;;;;;;;;7382079;19;20183;-84
2022/06/26 15:30:29;;;;;;;2.25;2.15;;;;;;;;;;7379756;19;20215;-84
2022/06/26 15:32:55;;;;;;;2.58;2.30;;;;;;;;;;7381089;19;20158;-83
2022/06/26 15:38:14;;;;;;;2.05;1.95;;;;;;;;;;7379896;19;20164;-83
2022/06/26 15:40:40;;;;;;;3.63;2.10;;;;;;;;;;7377255;19;20535;-83
2022/06/26 15:43:05;;;;;;;2.25;2.05;;;;;;;;;;7386021;19;20169;-83
2022/06/26 15:45:31;;;;;;;2.55;2.15;;;;;;;;;;7387396;19;20144;-83
2022/06/26 15:47:56;;;;;;;3.20;1.98;;;;;;;;;;7385910;19;20175;-83
2022/06/26 15:50:22;;;;;;;2.63;2.42;;;;;;;;;;7384122;19;20154;-83
2022/06/26 15:52:47;;;;;;;4.20;4.00;;;;;;;;;;7385331;19;20184;-83
2022/06/26 15:55:12;;;;;;;2.42;2.33;;;;;;;;;;7386941;19;20495;-84
2022/06/26 15:57:38;;;;;;;2.13;2.03;;;;;;;;;;7383593;19;20179;-83
2022/06/26 16:00:05;;;;;;;2.08;1.95;;;;;;;;;;7385289;19;20599;-83
2022/06/26 16:02:32;;;;;;;2.45;2.08;;;;;;;;;;7387169;19;20162;-83
2022/06/26 16:04:57;;;;;;;2.05;1.95;;;;;;;;;;7390988;19;20135;-83
2022/06/26 16:07:22;;;;;;;2.03;1.90;;;;;;;;;;7392726;19;20144;-83
2022/06/26 16:09:48;;;;;;;2.28;2.08;;;;;;;;;;7395569;19;20132;-83
2022/06/26 16:12:13;;;;;;;2.17;2.00;;;;;;;;;;7421190;19;20144;-81
2022/06/26 16:14:39;;;;;;;3.42;2.40;;;;;;;;;;7409205;19;20140;-81
2022/06/26 16:17:06;;;;;;;2.70;2.50;;;;;;;;;;7401390;19;20128;-81
2022/06/26 16:19:32;;;;;;;2.25;2.05;;;;;;;;;;7412817;19;20132;-80
2022/06/26 16:27:26;;;;;;;2.00;1.85;;;;;;;;;;7419721;19;20195;-79
2022/06/26 16:29:51;;;;;;;3.33;2.00;;;;;;;;;;7420328;19;20125;-79
2022/06/26 16:32:16;;;;;;;3.97;2.45;;;;;;;;;;7422840;19;20125;-80
2022/06/26 16:34:42;;;;;;;2.25;2.15;;;;;;;;;;7421193;19;20125;-80
2022/06/26 16:37:07;;;;;;;2.58;2.00;;;;;;;;;;7420139;19;20152;-80
2022/06/26 16:39:32;;;;;;;2.58;1.90;;;;;;;;;;7396152;19;20148;-80
2022/06/26 16:41:58;;;;;;;1.90;1.80;;;;;;;;;;7391919;19;20155;-80
2022/06/26 16:44:23;;;;;;;5.20;1.90;;;;;;;;;;7392986;19;20129;-79
2022/06/26 16:46:48;;;;;;;2.38;2.20;;;;;;;;;;7393040;19;20144;-79
2022/06/26 16:49:14;;;;;;;3.28;2.40;;;;;;;;;;7384219;19;20153;-79
2022/06/26 16:51:39;;;;;;;2.85;2.00;;;;;;;;;;7375712;19;20192;-79
2022/06/26 16:54:04;;;;;;;4.30;1.98;;;;;;;;;;7381151;19;20614;-79
2022/06/26 16:56:30;;;;;;;3.13;1.73;;;;;;;;;;7374203;19;20132;-79
2022/06/26 16:58:55;;;;;;;2.80;1.95;;;;;;;;;;7376302;19;20133;-80
2022/06/26 17:01:21;;;;;;;2.10;1.90;;;;;;;;;;7377100;19;20145;-80
2022/06/26 17:03:46;;;;;;;2.20;2.00;;;;;;;;;;7381049;19;20136;-80
2022/06/26 17:06:11;;;;;;;2.33;2.08;;;;;;;;;;7374860;19;20149;-80
2022/06/26 17:08:37;;;;;;;3.30;2.03;;;;;;;;;;7385027;19;20212;-80
2022/06/26 17:11:08;;;;;;;2.85;1.90;;;;;;;;;;7387075;19;20149;-81
2022/06/26 17:13:35;;;;;;;4.68;2.03;;;;;;;;;;7384259;19;20113;-78
2022/06/26 17:16:01;;;;;;;2.30;1.70;;;;;;;;;;7383889;19;20235;-78
2022/06/26 17:18:26;;;;;;;3.92;2.10;;;;;;;;;;7384832;19;20125;-78
2022/06/26 17:20:51;;;;;;;2.97;1.80;;;;;;;;;;7383284;19;20247;-79
2022/06/26 17:23:17;;;;;;;5.00;2.15;;;;;;;;;;7370207;19;20536;-81
2022/06/26 17:25:42;;;;;;;2.95;1.63;;;;;;;;;;7370899;19;20137;-79
2022/06/26 17:28:07;;;;;;;1.60;1.50;;;;;;;;;;7374229;19;20133;-79
2022/06/26 17:30:33;;;;;;;2.90;1.80;;;;;;;;;;7380078;19;20152;-79
2022/06/26 17:32:58;;;;;;;3.35;1.90;;;;;;;;;;7387335;19;20208;-79
2022/06/26 17:35:23;;;;;;;2.80;2.15;;;;;;;;;;7380973;19;20188;-79
